createdAt,value
2018-12-22T00:00:13.146Z,15.20
2018-12-22T00:01:13.133Z,13.20
2018-12-22T00:02:13.111Z,13.30
2018-12-22T00:03:13.108Z,13.00
2018-12-22T00:04:13.088Z,11.50
2018-12-22T00:05:13.090Z,12.50
2018-12-22T00:06:13.065Z,12.40
2018-12-22T00:07:13.052Z,13.70
2018-12-22T00:08:13.078Z,11.80
2018-12-22T00:09:13.032Z,13.50
2018-12-22T00:10:13.023Z,12.00
2018-12-22T00:11:13.026Z,13.80
2018-12-22T00:12:13.001Z,14.60
2018-12-22T00:13:12.989Z,12.70
2018-12-22T00:14:12.995Z,13.50
2018-12-22T00:15:12.963Z,14.50
2018-12-22T00:16:12.953Z,13.60
2018-12-22T00:17:12.959Z,13.80
2018-12-22T00:18:12.932Z,12.50
2018-12-22T00:19:12.917Z,18.60
2018-12-22T00:20:12.966Z,14.00
2018-12-22T00:21:12.897Z,14.20
2018-12-22T00:22:12.907Z,14.00
2018-12-22T00:23:12.891Z,12.90
2018-12-22T00:24:12.867Z,12.90
2018-12-22T00:25:12.860Z,13.40
2018-12-22T00:26:12.861Z,15.70
2018-12-22T00:27:12.833Z,12.30
2018-12-22T00:28:12.853Z,15.40
2018-12-22T00:29:12.852Z,13.90
2018-12-22T00:30:12.800Z,15.20
2018-12-22T00:31:12.786Z,16.70
2018-12-22T00:32:12.777Z,16.40
2018-12-22T00:33:12.767Z,13.50
2018-12-22T00:34:12.756Z,13.60
2018-12-22T00:35:12.769Z,11.30
2018-12-22T00:36:12.731Z,13.10
2018-12-22T00:37:12.720Z,14.50
2018-12-22T00:38:12.711Z,12.90
2018-12-22T00:39:12.697Z,14.50
2018-12-22T00:40:12.712Z,13.80
2018-12-22T00:41:12.701Z,12.40
2018-12-22T00:42:12.663Z,13.80
2018-12-22T00:43:12.765Z,11.60
2018-12-22T00:44:12.644Z,13.10
2018-12-22T00:45:12.635Z,12.60
2018-12-22T00:46:12.637Z,14.30
2018-12-22T00:47:12.616Z,13.60
2018-12-22T00:48:12.598Z,11.70
2018-12-22T00:49:12.591Z,13.70
2018-12-22T00:50:12.575Z,11.80
2018-12-22T00:51:12.567Z,12.50
2018-12-22T00:52:12.575Z,15.90
2018-12-22T00:53:12.562Z,13.10
2018-12-22T00:54:12.539Z,11.80
2018-12-22T00:55:12.520Z,14.30
2018-12-22T00:56:12.510Z,13.10
2018-12-22T00:57:12.525Z,11.50
2018-12-22T00:58:12.488Z,12.00
2018-12-22T00:59:12.493Z,14.00
2018-12-22T01:00:13.779Z,13.00
2018-12-22T01:01:12.454Z,13.30
2018-12-22T01:02:12.442Z,11.60
2018-12-22T01:03:12.442Z,13.00
2018-12-22T01:04:12.426Z,11.30
2018-12-22T01:05:12.435Z,11.20
2018-12-22T01:06:12.398Z,13.70
2018-12-22T01:07:12.385Z,10.90
2018-12-22T01:08:12.399Z,10.80
2018-12-22T01:09:12.374Z,14.50
2018-12-22T01:10:12.358Z,13.10
2018-12-22T01:11:12.341Z,12.70
2018-12-22T01:12:12.354Z,10.20
2018-12-22T01:13:12.321Z,13.60
2018-12-22T01:14:12.321Z,10.70
2018-12-22T01:15:12.298Z,11.80
2018-12-22T01:16:12.293Z,12.70
2018-12-22T01:17:12.275Z,11.00
2018-12-22T01:18:12.359Z,12.90
2018-12-22T01:19:12.255Z,10.30
2018-12-22T01:20:12.262Z,11.90
2018-12-22T01:21:12.231Z,10.90
2018-12-22T01:22:12.218Z,10.40
2018-12-22T01:23:12.207Z,11.20
2018-12-22T01:24:12.206Z,10.70
2018-12-22T01:25:12.185Z,12.30
2018-12-22T01:26:12.196Z,13.50
2018-12-22T01:27:12.164Z,11.10
2018-12-22T01:28:12.152Z,9.80
2018-12-22T01:29:12.140Z,8.60
2018-12-22T01:30:12.145Z,12.30
2018-12-22T01:31:12.121Z,9.40
2018-12-22T01:32:12.120Z,8.80
2018-12-22T01:33:12.096Z,9.90
2018-12-22T01:34:12.121Z,8.60
2018-12-22T01:35:12.073Z,12.50
2018-12-22T01:36:12.063Z,9.60
2018-12-22T01:37:12.090Z,9.30
2018-12-22T01:38:12.041Z,12.10
2018-12-22T01:39:12.030Z,10.00
2018-12-22T01:40:12.018Z,11.20
2018-12-22T01:41:12.052Z,11.30
2018-12-22T01:42:11.997Z,9.60
2018-12-22T01:43:12.034Z,10.70
2018-12-22T01:44:11.979Z,13.10
2018-12-22T01:45:11.960Z,11.20
2018-12-22T01:46:11.949Z,10.70
2018-12-22T01:47:11.943Z,11.10
2018-12-22T01:48:11.928Z,9.00
2018-12-22T01:49:11.938Z,11.30
2018-12-22T01:50:11.918Z,10.60
2018-12-22T01:51:11.900Z,13.60
2018-12-22T01:52:11.890Z,11.50
2018-12-22T01:53:11.875Z,11.50
2018-12-22T01:54:11.884Z,10.80
2018-12-22T01:55:11.852Z,9.60
2018-12-22T01:56:11.866Z,9.00
2018-12-22T01:57:11.829Z,12.00
2018-12-22T01:58:11.816Z,13.20
2018-12-22T01:59:11.811Z,13.40
2018-12-22T02:00:11.805Z,11.20
2018-12-22T02:01:11.783Z,14.00
2018-12-22T02:02:11.774Z,10.10
2018-12-22T02:03:11.804Z,11.40
2018-12-22T02:04:11.752Z,10.00
2018-12-22T02:05:11.754Z,11.70
2018-12-22T02:06:11.731Z,11.60
2018-12-22T02:07:11.717Z,12.30
2018-12-22T02:08:20.319Z,10.40
2018-12-22T02:09:11.697Z,10.50
2018-12-22T02:10:11.687Z,9.20
2018-12-22T02:11:11.698Z,10.30
2018-12-22T02:12:11.660Z,10.60
2018-12-22T02:13:11.650Z,12.10
2018-12-22T02:14:11.651Z,10.60
2018-12-22T02:15:11.637Z,10.20
2018-12-22T02:16:11.616Z,10.20
2018-12-22T02:17:11.606Z,9.70
2018-12-22T02:18:11.594Z,9.10
2018-12-22T02:19:11.600Z,9.50
2018-12-22T02:20:11.592Z,10.10
2018-12-22T02:21:11.558Z,11.00
2018-12-22T02:22:11.548Z,12.60
2018-12-22T02:23:11.538Z,10.80
2018-12-22T02:24:11.529Z,10.60
2018-12-22T02:25:11.553Z,10.20
2018-12-22T02:26:11.503Z,11.60
2018-12-22T02:27:11.515Z,11.50
2018-12-22T02:28:11.484Z,12.10
2018-12-22T02:29:11.470Z,13.20
2018-12-22T02:30:11.463Z,10.40
2018-12-22T02:31:11.464Z,12.60
2018-12-22T02:32:11.435Z,11.40
2018-12-22T02:33:11.442Z,13.30
2018-12-22T02:34:11.414Z,11.10
2018-12-22T02:35:11.407Z,12.70
2018-12-22T02:36:11.394Z,10.60
2018-12-22T02:37:11.393Z,14.40
2018-12-22T02:38:11.369Z,12.20
2018-12-22T02:39:11.371Z,13.10
2018-12-22T02:40:11.347Z,13.10
2018-12-22T02:41:11.335Z,9.70
2018-12-22T02:42:11.344Z,12.80
2018-12-22T02:43:11.315Z,12.50
2018-12-22T02:44:11.301Z,12.70
2018-12-22T02:45:11.310Z,12.40
2018-12-22T02:46:11.422Z,13.10
2018-12-22T02:47:11.271Z,10.70
2018-12-22T02:48:11.277Z,11.90
2018-12-22T02:49:11.252Z,11.80
2018-12-22T02:50:11.239Z,9.50
2018-12-22T02:51:11.236Z,11.80
2018-12-22T02:52:11.215Z,10.60
2018-12-22T02:53:11.207Z,14.30
2018-12-22T02:54:11.204Z,13.20
2018-12-22T02:55:11.204Z,13.80
2018-12-22T02:56:11.171Z,12.30
2018-12-22T02:57:11.163Z,10.50
2018-12-22T02:58:11.174Z,13.10
2018-12-22T02:59:11.137Z,14.10
2018-12-22T03:00:11.127Z,14.80
2018-12-22T03:01:11.132Z,14.50
2018-12-22T03:02:11.104Z,12.00
2018-12-22T03:03:11.096Z,12.90
2018-12-22T03:04:11.096Z,12.80
2018-12-22T03:05:11.073Z,14.50
2018-12-22T03:06:11.058Z,17.30
2018-12-22T03:07:11.062Z,21.30
2018-12-22T03:08:11.038Z,16.20
2018-12-22T03:09:11.030Z,19.60
2018-12-22T03:10:11.048Z,22.30
2018-12-22T03:11:11.003Z,30.00
2018-12-22T03:12:10.992Z,23.50
2018-12-22T03:13:10.997Z,28.30
2018-12-22T03:14:10.972Z,23.10
2018-12-22T03:15:10.962Z,26.60
2018-12-22T03:16:10.961Z,30.90
2018-12-22T03:17:10.939Z,34.60
2018-12-22T03:18:10.925Z,29.70
2018-12-22T03:19:10.922Z,33.50
2018-12-22T03:20:10.902Z,35.60
2018-12-22T03:21:10.891Z,33.60
2018-12-22T03:22:10.895Z,35.00
2018-12-22T03:23:10.876Z,34.60
2018-12-22T03:24:10.872Z,30.60
2018-12-22T03:25:10.858Z,30.00
2018-12-22T03:26:10.836Z,40.70
2018-12-22T03:27:10.826Z,35.20
2018-12-22T03:28:10.826Z,33.80
2018-12-22T03:29:15.439Z,34.00
2018-12-22T03:30:11.808Z,34.00
2018-12-22T03:31:10.796Z,35.10
2018-12-22T03:32:10.785Z,44.50
2018-12-22T03:33:10.760Z,42.00
2018-12-22T03:34:10.778Z,35.20
2018-12-22T03:35:10.735Z,42.70
2018-12-22T03:36:10.739Z,41.10
2018-12-22T03:37:10.726Z,39.60
2018-12-22T03:38:10.709Z,35.20
2018-12-22T03:39:10.724Z,41.20
2018-12-22T03:40:10.683Z,35.80
2018-12-22T03:41:10.667Z,38.90
2018-12-22T03:42:10.680Z,41.10
2018-12-22T03:43:10.647Z,39.00
2018-12-22T03:44:10.656Z,39.30
2018-12-22T03:45:10.626Z,42.30
2018-12-22T03:46:10.612Z,40.20
2018-12-22T03:47:10.632Z,36.30
2018-12-22T03:48:10.603Z,41.60
2018-12-22T03:49:10.581Z,43.40
2018-12-22T03:50:10.570Z,43.20
2018-12-22T03:51:10.557Z,44.10
2018-12-22T03:52:10.547Z,44.70
2018-12-22T03:53:10.553Z,43.30
2018-12-22T03:54:10.654Z,37.60
2018-12-22T03:55:10.513Z,37.80
2018-12-22T03:56:10.504Z,42.70
2018-12-22T03:57:10.490Z,40.40
2018-12-22T03:58:10.483Z,36.70
2018-12-22T03:59:10.485Z,43.20
2018-12-22T04:00:10.459Z,38.30
2018-12-22T04:01:10.445Z,38.40
2018-12-22T04:02:10.433Z,37.90
2018-12-22T04:03:11.961Z,38.20
2018-12-22T04:04:10.548Z,38.10
2018-12-22T04:05:10.399Z,37.60
2018-12-22T04:06:10.392Z,41.40
2018-12-22T04:07:10.377Z,34.50
2018-12-22T04:08:10.363Z,40.40
2018-12-22T04:09:10.352Z,33.80
2018-12-22T04:10:10.368Z,41.70
2018-12-22T04:11:10.334Z,37.10
2018-12-22T04:12:10.344Z,32.50
2018-12-22T04:13:10.335Z,39.20
2018-12-22T04:14:10.303Z,35.50
2018-12-22T04:15:10.288Z,37.80
2018-12-22T04:16:10.287Z,32.60
2018-12-22T04:17:10.269Z,33.40
2018-12-22T04:18:10.280Z,31.20
2018-12-22T04:19:10.241Z,28.90
2018-12-22T04:20:10.232Z,30.90
2018-12-22T04:21:10.216Z,32.70
2018-12-22T04:22:10.211Z,38.30
2018-12-22T04:23:10.199Z,30.10
2018-12-22T04:24:10.222Z,32.80
2018-12-22T04:25:10.190Z,31.50
2018-12-22T04:26:10.174Z,33.60
2018-12-22T04:27:10.152Z,28.50
2018-12-22T04:28:10.142Z,24.60
2018-12-22T04:29:10.147Z,25.80
2018-12-22T04:30:10.120Z,20.50
2018-12-22T04:31:10.132Z,24.10
2018-12-22T04:32:10.096Z,22.80
2018-12-22T04:33:10.086Z,22.40
2018-12-22T04:34:10.076Z,31.40
2018-12-22T04:35:10.077Z,23.30
2018-12-22T04:36:10.048Z,23.90
2018-12-22T04:37:10.056Z,24.40
2018-12-22T04:38:10.068Z,24.30
2018-12-22T04:39:10.017Z,26.90
2018-12-22T04:40:10.005Z,19.60
2018-12-22T04:41:09.995Z,28.90
2018-12-22T04:42:09.990Z,23.80
2018-12-22T04:43:09.984Z,23.10
2018-12-22T04:44:09.985Z,22.00
2018-12-22T04:45:09.955Z,20.70
2018-12-22T04:46:09.953Z,22.30
2018-12-22T04:47:09.943Z,17.70
2018-12-22T04:48:09.918Z,21.30
2018-12-22T04:49:09.906Z,20.30
2018-12-22T04:50:09.892Z,19.10
2018-12-22T04:51:09.905Z,19.40
2018-12-22T04:52:09.887Z,21.40
2018-12-22T04:53:09.872Z,23.40
2018-12-22T04:54:09.865Z,21.90
2018-12-22T04:55:09.839Z,21.80
2018-12-22T04:56:09.826Z,19.50
2018-12-22T04:57:09.832Z,16.90
2018-12-22T04:58:09.811Z,20.10
2018-12-22T04:59:09.796Z,15.60
2018-12-22T05:00:09.802Z,23.70
2018-12-22T05:01:09.773Z,18.30
2018-12-22T05:02:09.760Z,18.00
2018-12-22T05:03:09.792Z,19.00
2018-12-22T05:04:09.737Z,17.80
2018-12-22T05:05:09.729Z,16.90
2018-12-22T05:06:09.726Z,16.80
2018-12-22T05:07:09.703Z,21.10
2018-12-22T05:08:09.697Z,16.60
2018-12-22T05:09:09.683Z,16.60
2018-12-22T05:10:09.687Z,16.40
2018-12-22T05:11:09.678Z,16.10
2018-12-22T05:12:09.660Z,19.60
2018-12-22T05:13:09.638Z,20.00
2018-12-22T05:14:09.629Z,21.40
2018-12-22T05:15:09.617Z,19.90
2018-12-22T05:16:09.609Z,18.20
2018-12-22T05:17:09.629Z,18.40
2018-12-22T05:18:09.583Z,15.10
2018-12-22T05:19:09.573Z,16.30
2018-12-22T05:20:09.562Z,19.30
2018-12-22T05:21:09.551Z,18.70
2018-12-22T05:22:09.541Z,17.60
2018-12-22T05:23:09.548Z,12.90
2018-12-22T05:24:09.514Z,18.90
2018-12-22T05:25:09.512Z,16.20
2018-12-22T05:26:09.506Z,16.20
2018-12-22T05:27:09.481Z,16.50
2018-12-22T05:28:09.470Z,14.40
2018-12-22T05:29:09.487Z,14.60
2018-12-22T05:30:09.446Z,16.90
2018-12-22T05:31:09.439Z,13.90
2018-12-22T05:32:09.443Z,17.60
2018-12-22T05:33:09.418Z,12.10
2018-12-22T05:34:09.414Z,14.20
2018-12-22T05:35:09.407Z,14.60
2018-12-22T05:36:09.384Z,13.80
2018-12-22T05:37:09.369Z,18.40
2018-12-22T05:38:09.360Z,19.90
2018-12-22T05:39:09.368Z,14.80
2018-12-22T05:40:09.347Z,14.00
2018-12-22T05:41:09.352Z,7.30
2018-12-22T05:42:09.319Z,8.50
2018-12-22T05:43:09.305Z,4.90
2018-12-22T05:44:09.296Z,4.50
2018-12-22T05:45:09.291Z,3.00
2018-12-22T05:46:09.272Z,3.80
2018-12-22T05:47:09.262Z,5.30
2018-12-22T05:48:09.248Z,2.60
2018-12-22T05:49:09.249Z,3.30
2018-12-22T05:50:09.250Z,2.40
2018-12-22T05:51:09.219Z,2.40
2018-12-22T05:52:09.203Z,3.70
2018-12-22T05:53:09.287Z,3.10
2018-12-22T05:54:09.199Z,1.50
2018-12-22T05:55:09.211Z,2.40
2018-12-22T05:56:09.181Z,1.40
2018-12-22T05:57:09.145Z,1.30
2018-12-22T05:58:09.141Z,1.90
2018-12-22T05:59:09.127Z,1.40
2018-12-22T06:00:09.113Z,3.00
2018-12-22T06:01:09.180Z,1.20
2018-12-22T06:02:09.115Z,3.40
2018-12-22T06:03:09.170Z,1.60
2018-12-22T06:04:09.076Z,3.00
2018-12-22T06:05:09.062Z,3.50
2018-12-22T06:06:09.057Z,0.90
2018-12-22T06:07:09.042Z,2.20
2018-12-22T06:08:09.042Z,1.80
2018-12-22T06:09:09.015Z,2.10
2018-12-22T06:10:09.003Z,2.10
2018-12-22T06:11:09.030Z,3.10
2018-12-22T06:12:08.981Z,3.50
2018-12-22T06:13:08.989Z,3.30
2018-12-22T06:14:08.960Z,2.80
2018-12-22T06:15:08.951Z,3.10
2018-12-22T06:16:08.940Z,3.00
2018-12-22T06:17:08.965Z,3.30
2018-12-22T06:18:08.916Z,2.60
2018-12-22T06:19:08.918Z,1.90
2018-12-22T06:20:08.969Z,4.10
2018-12-22T06:21:08.882Z,1.90
2018-12-22T06:22:08.872Z,1.60
2018-12-22T06:23:08.875Z,1.70
2018-12-22T06:24:08.864Z,1.40
2018-12-22T06:25:08.840Z,3.80
2018-12-22T06:26:08.837Z,2.40
2018-12-22T06:27:08.816Z,3.00
2018-12-22T06:28:08.806Z,2.60
2018-12-22T06:29:08.793Z,1.50
2018-12-22T06:30:09.533Z,1.70
2018-12-22T06:31:08.770Z,3.00
2018-12-22T06:32:08.760Z,2.00
2018-12-22T06:33:08.759Z,2.50
2018-12-22T06:34:08.734Z,3.30
2018-12-22T06:35:08.750Z,3.40
2018-12-22T06:36:08.730Z,2.10
2018-12-22T06:37:08.705Z,2.30
2018-12-22T06:38:08.693Z,2.40
2018-12-22T06:39:08.684Z,2.00
2018-12-22T06:40:08.670Z,3.60
2018-12-22T06:41:08.673Z,2.30
2018-12-22T06:42:08.690Z,1.70
2018-12-22T06:43:08.637Z,1.90
2018-12-22T06:44:08.639Z,3.00
2018-12-22T06:45:08.614Z,1.40
2018-12-22T06:46:08.621Z,2.30
2018-12-22T06:47:08.594Z,3.00
2018-12-22T06:48:08.593Z,2.80
2018-12-22T06:49:08.611Z,2.90
2018-12-22T06:50:08.560Z,3.60
2018-12-22T06:51:08.547Z,4.40
2018-12-22T06:52:08.565Z,6.00
2018-12-22T06:53:08.528Z,5.70
2018-12-22T06:54:08.516Z,8.10
2018-12-22T06:55:08.509Z,5.80
2018-12-22T06:56:08.498Z,4.60
2018-12-22T06:57:08.482Z,4.20
2018-12-22T06:58:08.484Z,5.00
2018-12-22T06:59:08.459Z,7.10
2018-12-22T07:00:08.458Z,5.20
2018-12-22T07:01:08.446Z,6.40
2018-12-22T07:02:08.483Z,8.50
2018-12-22T07:03:08.423Z,8.20
2018-12-22T07:04:08.433Z,5.20
2018-12-22T07:05:08.389Z,8.10
2018-12-22T07:06:08.382Z,5.20
2018-12-22T07:07:08.371Z,4.50
2018-12-22T07:08:08.359Z,4.30
2018-12-22T07:09:08.346Z,6.70
2018-12-22T07:10:08.398Z,4.60
2018-12-22T07:11:08.354Z,6.30
2018-12-22T07:12:08.312Z,4.00
2018-12-22T07:13:15.856Z,5.20
2018-12-22T07:14:15.848Z,4.50
2018-12-22T07:15:16.944Z,3.90
2018-12-22T07:16:15.826Z,5.10
2018-12-22T07:17:15.811Z,5.20
2018-12-22T07:18:15.796Z,5.20
2018-12-22T07:19:15.956Z,5.40
2018-12-22T07:20:15.788Z,2.80
2018-12-22T07:21:17.148Z,6.60
2018-12-22T07:22:15.748Z,5.40
2018-12-22T07:23:15.751Z,5.90
2018-12-22T07:24:15.733Z,4.70
2018-12-22T07:25:15.828Z,4.70
2018-12-22T07:26:16.834Z,6.20
2018-12-22T07:27:08.146Z,5.70
2018-12-22T07:28:08.132Z,6.70
2018-12-22T07:29:15.688Z,4.20
2018-12-22T07:30:15.660Z,4.90
2018-12-22T07:31:15.652Z,4.00
2018-12-22T07:32:16.984Z,5.10
2018-12-22T07:33:15.634Z,4.60
2018-12-22T07:34:15.635Z,4.70
2018-12-22T07:35:15.601Z,5.60
2018-12-22T07:36:15.592Z,4.60
2018-12-22T07:37:15.586Z,5.90
2018-12-22T07:38:16.693Z,4.40
2018-12-22T07:39:15.562Z,7.50
2018-12-22T07:40:15.549Z,7.50
2018-12-22T07:41:15.544Z,7.00
2018-12-22T07:42:15.536Z,5.40
2018-12-22T07:43:07.966Z,5.70
2018-12-22T07:44:08.000Z,5.10
2018-12-22T07:45:07.987Z,5.90
2018-12-22T07:46:07.934Z,7.90
2018-12-22T07:47:07.969Z,7.50
2018-12-22T07:48:07.910Z,8.40
2018-12-22T07:49:07.909Z,7.50
2018-12-22T07:50:07.903Z,4.60
2018-12-22T07:51:07.873Z,5.30
2018-12-22T07:52:07.869Z,4.70
2018-12-22T07:53:07.886Z,6.30
2018-12-22T07:54:07.844Z,5.90
2018-12-22T07:55:07.834Z,5.70
2018-12-22T07:56:07.838Z,5.80
2018-12-22T07:57:07.809Z,3.50
2018-12-22T07:58:07.811Z,6.10
2018-12-22T07:59:07.790Z,5.00
2018-12-22T08:00:07.783Z,7.40
2018-12-22T08:01:07.780Z,4.70
2018-12-22T08:02:07.754Z,6.50
2018-12-22T08:03:07.746Z,6.70
2018-12-22T08:04:07.751Z,4.20
2018-12-22T08:05:07.720Z,7.30
2018-12-22T08:06:07.713Z,7.30
2018-12-22T08:07:07.713Z,5.00
2018-12-22T08:08:07.687Z,3.90
2018-12-22T08:10:26.971Z,7.90
2018-12-22T08:11:26.977Z,5.70
2018-12-22T08:12:26.916Z,5.30
2018-12-22T08:13:26.907Z,4.80
2018-12-22T08:14:26.896Z,5.20
2018-12-22T08:15:26.880Z,4.60
2018-12-22T08:16:26.883Z,4.70
2018-12-22T08:17:26.879Z,5.00
2018-12-22T08:18:26.905Z,4.50
2018-12-22T08:19:26.841Z,6.90
2018-12-22T08:20:26.834Z,7.40
2018-12-22T08:21:26.857Z,5.60
2018-12-22T08:22:26.801Z,4.60
2018-12-22T08:23:26.810Z,4.20
2018-12-22T08:24:26.793Z,6.20
2018-12-22T08:25:26.777Z,5.70
2018-12-22T08:26:26.773Z,6.70
2018-12-22T08:27:26.754Z,4.90
2018-12-22T08:28:26.757Z,6.40
2018-12-22T08:29:26.735Z,6.50
2018-12-22T08:30:26.714Z,5.40
2018-12-22T08:31:26.738Z,4.90
2018-12-22T08:32:26.724Z,5.40
2018-12-22T08:33:26.689Z,7.70
2018-12-22T08:34:26.701Z,4.40
2018-12-22T08:35:26.660Z,4.20
2018-12-22T08:36:26.672Z,5.60
2018-12-22T08:37:26.652Z,4.10
2018-12-22T08:38:26.622Z,3.60
2018-12-22T08:39:26.614Z,7.30
2018-12-22T08:40:26.619Z,5.10
2018-12-22T08:41:26.702Z,6.60
2018-12-22T08:42:26.588Z,5.00
2018-12-22T08:43:26.580Z,4.40
2018-12-22T08:44:26.557Z,3.50
2018-12-22T08:45:26.568Z,3.60
2018-12-22T08:46:26.554Z,3.60
2018-12-22T08:47:26.561Z,3.50
2018-12-22T08:48:26.508Z,3.70
2018-12-22T08:49:26.518Z,5.60
2018-12-22T08:50:26.487Z,3.90
2018-12-22T08:51:26.484Z,3.00
2018-12-22T08:52:26.512Z,4.00
2018-12-22T08:53:26.457Z,3.80
2018-12-22T08:54:26.461Z,4.00
2018-12-22T08:55:26.430Z,4.60
2018-12-22T08:56:26.419Z,3.90
2018-12-22T08:57:26.414Z,4.00
2018-12-22T08:58:26.453Z,5.30
2018-12-22T08:59:26.386Z,3.90
2018-12-22T09:00:26.376Z,4.80
2018-12-22T09:01:26.381Z,5.40
2018-12-22T09:02:26.359Z,5.20
2018-12-22T09:03:26.347Z,4.80
2018-12-22T09:04:26.387Z,5.10
2018-12-22T09:05:26.341Z,2.90
2018-12-22T09:06:26.310Z,2.60
2018-12-22T09:07:26.307Z,4.00
2018-12-22T09:08:26.325Z,4.70
2018-12-22T09:09:26.275Z,3.30
2018-12-22T09:10:26.292Z,4.50
2018-12-22T09:11:26.255Z,2.20
2018-12-22T09:12:26.245Z,3.70
2018-12-22T09:13:26.231Z,4.50
2018-12-22T09:14:26.252Z,3.30
2018-12-22T09:15:26.215Z,5.20
2018-12-22T09:16:26.217Z,4.80
2018-12-22T09:17:26.187Z,2.40
2018-12-22T09:18:26.177Z,3.20
2018-12-22T09:19:26.161Z,2.20
2018-12-22T09:20:26.157Z,2.10
2018-12-22T09:21:26.173Z,3.30
2018-12-22T09:22:26.141Z,1.90
2018-12-22T09:23:26.119Z,3.40
2018-12-22T09:24:26.112Z,3.00
2018-12-22T09:25:26.094Z,2.80
2018-12-22T09:26:26.096Z,3.00
2018-12-22T09:27:26.072Z,1.50
2018-12-22T09:28:26.071Z,3.50
2018-12-22T09:29:26.049Z,2.40
2018-12-22T09:30:26.037Z,2.60
2018-12-22T09:31:26.061Z,3.00
2018-12-22T09:32:26.041Z,1.90
2018-12-22T09:33:26.010Z,2.70
2018-12-22T09:34:25.997Z,2.50
2018-12-22T09:35:25.984Z,1.60
2018-12-22T09:36:25.977Z,3.30
2018-12-22T09:37:25.960Z,3.70
2018-12-22T09:38:25.971Z,4.60
2018-12-22T09:39:25.943Z,8.80
2018-12-22T09:40:25.945Z,5.40
2018-12-22T09:41:25.915Z,4.90
2018-12-22T09:42:25.937Z,8.10
2018-12-22T09:43:25.914Z,5.40
2018-12-22T09:44:25.910Z,6.40
2018-12-22T09:45:25.871Z,6.40
2018-12-22T09:46:25.917Z,5.30
2018-12-22T09:47:25.848Z,5.70
2018-12-22T09:48:25.834Z,6.60
2018-12-22T09:49:25.823Z,6.20
2018-12-22T09:50:25.891Z,6.20
2018-12-22T09:51:25.816Z,7.00
2018-12-22T09:52:25.815Z,7.70
2018-12-22T09:53:25.778Z,7.60
2018-12-22T09:54:25.764Z,7.60
2018-12-22T09:55:25.762Z,9.70
2018-12-22T09:56:25.807Z,10.60
2018-12-22T09:57:25.739Z,8.80
2018-12-22T09:58:25.761Z,10.30
2018-12-22T09:59:25.715Z,8.70
2018-12-22T10:00:25.725Z,8.50
2018-12-22T10:01:25.695Z,8.90
2018-12-22T10:02:25.704Z,8.50
2018-12-22T10:03:25.668Z,8.40
2018-12-22T10:04:25.696Z,10.20
2018-12-22T10:05:25.654Z,9.30
2018-12-22T10:06:25.658Z,9.80
2018-12-22T10:07:25.626Z,9.20
2018-12-22T10:08:25.620Z,10.10
2018-12-22T10:09:25.646Z,9.00
2018-12-22T10:10:25.589Z,10.90
2018-12-22T10:11:25.584Z,12.30
2018-12-22T10:12:25.677Z,9.50
2018-12-22T10:13:25.562Z,11.20
2018-12-22T10:14:25.591Z,10.60
2018-12-22T10:15:25.535Z,8.70
2018-12-22T10:16:25.529Z,8.30
2018-12-22T10:17:25.537Z,10.90
2018-12-22T10:18:25.519Z,11.70
2018-12-22T10:19:25.493Z,11.20
2018-12-22T10:20:25.537Z,9.00
2018-12-22T10:21:25.469Z,9.80
2018-12-22T10:22:25.457Z,11.50
2018-12-22T10:23:25.465Z,7.60
2018-12-22T10:24:25.475Z,10.70
2018-12-22T10:25:25.441Z,11.00
2018-12-22T10:26:25.414Z,13.50
2018-12-22T10:27:25.405Z,8.40
2018-12-22T10:28:25.392Z,12.60
2018-12-22T10:29:25.404Z,10.00
2018-12-22T10:30:25.370Z,8.20
2018-12-22T10:31:25.359Z,7.00
2018-12-22T10:32:25.339Z,8.60
2018-12-22T10:33:25.383Z,7.30
2018-12-22T10:34:25.317Z,9.80
2018-12-22T10:35:25.312Z,10.60
2018-12-22T10:36:25.319Z,11.70
2018-12-22T10:37:25.332Z,9.70
2018-12-22T10:38:25.294Z,8.10
2018-12-22T10:39:25.265Z,8.00
2018-12-22T10:40:25.288Z,13.50
2018-12-22T10:41:25.269Z,10.00
2018-12-22T10:42:25.248Z,11.00
2018-12-22T10:43:25.230Z,9.20
2018-12-22T10:44:25.233Z,8.50
2018-12-22T10:45:25.218Z,8.90
2018-12-22T10:46:25.191Z,9.90
2018-12-22T10:47:25.216Z,8.80
2018-12-22T10:48:25.181Z,8.90
2018-12-22T10:49:25.163Z,7.40
2018-12-22T10:50:25.144Z,8.30
2018-12-22T10:51:25.161Z,13.00
2018-12-22T10:52:25.128Z,7.90
2018-12-22T10:53:25.125Z,11.20
2018-12-22T10:54:25.095Z,7.30
2018-12-22T10:55:25.088Z,12.00
2018-12-22T10:56:25.077Z,7.30
2018-12-22T10:57:25.116Z,10.90
2018-12-22T10:58:25.054Z,12.90
2018-12-22T10:59:25.060Z,9.10
2018-12-22T11:00:25.037Z,7.80
2018-12-22T11:01:26.652Z,10.60
2018-12-22T11:02:25.006Z,7.30
2018-12-22T11:03:24.997Z,9.40
2018-12-22T11:04:25.008Z,10.80
2018-12-22T11:05:24.981Z,9.40
2018-12-22T11:06:24.965Z,13.30
2018-12-22T11:07:24.957Z,8.20
2018-12-22T11:08:24.940Z,7.80
2018-12-22T11:09:24.928Z,11.30
2018-12-22T11:10:24.944Z,14.00
2018-12-22T11:11:24.922Z,10.30
2018-12-22T11:12:24.902Z,8.00
2018-12-22T11:13:24.931Z,7.90
2018-12-22T11:14:24.881Z,6.00
2018-12-22T11:15:24.867Z,11.10
2018-12-22T11:16:24.907Z,9.60
2018-12-22T11:17:24.847Z,11.10
2018-12-22T11:18:24.835Z,9.70
2018-12-22T11:19:24.817Z,11.90
2018-12-22T11:20:24.811Z,9.60
2018-12-22T11:21:24.807Z,12.30
2018-12-22T11:22:24.809Z,8.70
2018-12-22T11:23:24.815Z,11.80
2018-12-22T11:24:24.759Z,9.40
2018-12-22T11:25:24.754Z,9.50
2018-12-22T11:26:24.766Z,7.70
2018-12-22T11:27:24.728Z,10.10
2018-12-22T11:28:24.751Z,8.70
2018-12-22T11:29:24.729Z,10.10
2018-12-22T11:30:24.705Z,12.10
2018-12-22T11:31:24.682Z,9.80
2018-12-22T11:32:24.695Z,9.90
2018-12-22T11:33:24.666Z,11.20
2018-12-22T11:34:24.651Z,9.10
2018-12-22T11:35:24.659Z,8.60
2018-12-22T11:36:24.626Z,9.90
2018-12-22T11:37:24.661Z,9.30
2018-12-22T11:38:24.609Z,10.10
2018-12-22T11:39:24.592Z,8.80
2018-12-22T11:40:24.581Z,14.90
2018-12-22T11:41:24.592Z,11.50
2018-12-22T11:42:24.577Z,8.60
2018-12-22T11:43:24.551Z,12.10
2018-12-22T11:44:24.539Z,11.10
2018-12-22T11:45:24.534Z,9.30
2018-12-22T11:46:24.547Z,8.70
2018-12-22T11:47:24.538Z,12.30
2018-12-22T11:48:24.493Z,12.40
2018-12-22T11:49:24.537Z,7.60
2018-12-22T11:50:24.488Z,12.50
2018-12-22T11:51:24.461Z,7.60
2018-12-22T11:52:24.460Z,8.60
2018-12-22T11:53:24.450Z,6.50
2018-12-22T11:54:24.453Z,6.50
2018-12-22T11:55:24.418Z,9.50
2018-12-22T11:56:24.451Z,8.90
2018-12-22T11:57:24.397Z,7.00
2018-12-22T11:58:24.384Z,12.40
2018-12-22T11:59:24.373Z,7.80
2018-12-22T12:00:24.378Z,10.00
2018-12-22T12:01:24.363Z,8.30
2018-12-22T12:02:24.337Z,9.50
2018-12-22T12:03:24.333Z,9.10
2018-12-22T12:04:24.369Z,10.50
2018-12-22T12:05:24.305Z,11.10
2018-12-22T12:06:24.307Z,12.10
2018-12-22T12:07:24.293Z,8.80
2018-12-22T12:08:24.294Z,9.10
2018-12-22T12:09:24.266Z,8.00
2018-12-22T12:10:24.257Z,7.00
2018-12-22T12:11:24.369Z,10.60
2018-12-22T12:12:24.227Z,11.80
2018-12-22T12:13:24.220Z,10.70
2018-12-22T12:14:24.215Z,7.20
2018-12-22T12:15:24.197Z,6.50
2018-12-22T12:16:24.197Z,9.00
2018-12-22T12:17:24.176Z,9.30
2018-12-22T12:18:24.160Z,8.40
2018-12-22T12:19:24.148Z,12.20
2018-12-22T12:20:24.156Z,8.20
2018-12-22T12:21:24.148Z,11.30
2018-12-22T12:22:24.130Z,14.20
2018-12-22T12:23:24.194Z,11.50
2018-12-22T12:24:24.098Z,9.60
2018-12-22T12:25:24.097Z,9.20
2018-12-22T12:26:24.103Z,7.70
2018-12-22T12:27:24.069Z,8.40
2018-12-22T12:28:24.047Z,6.40
2018-12-22T12:29:24.038Z,5.00
2018-12-22T12:30:24.040Z,6.90
2018-12-22T12:31:24.018Z,7.80
2018-12-22T12:32:24.034Z,6.60
2018-12-22T12:33:23.999Z,5.30
2018-12-22T12:34:24.052Z,7.80
2018-12-22T12:35:23.967Z,8.30
2018-12-22T12:36:23.961Z,5.50
2018-12-22T12:37:23.949Z,5.20
2018-12-22T12:38:23.963Z,7.60
2018-12-22T12:39:23.940Z,10.70
2018-12-22T12:40:23.943Z,10.50
2018-12-22T12:41:23.917Z,7.70
2018-12-22T12:42:23.918Z,8.30
2018-12-22T12:43:23.910Z,10.20
2018-12-22T12:44:23.888Z,5.40
2018-12-22T12:45:23.860Z,7.00
2018-12-22T12:46:23.852Z,8.80
2018-12-22T12:47:23.899Z,7.30
2018-12-22T12:48:23.827Z,8.00
2018-12-22T12:49:23.824Z,6.10
2018-12-22T12:50:23.801Z,7.10
2018-12-22T12:51:23.791Z,6.80
2018-12-22T12:52:23.780Z,4.60
2018-12-22T12:53:23.771Z,6.30
2018-12-22T12:54:23.783Z,3.60
2018-12-22T12:55:23.750Z,5.80
2018-12-22T12:56:23.737Z,4.10
2018-12-22T12:57:23.727Z,9.00
2018-12-22T12:58:23.762Z,6.20
2018-12-22T12:59:23.698Z,6.50
2018-12-22T13:00:23.710Z,5.40
2018-12-22T13:01:24.439Z,3.30
2018-12-22T13:02:23.667Z,5.30
2018-12-22T13:03:23.668Z,7.50
2018-12-22T13:04:23.662Z,5.70
2018-12-22T13:05:23.652Z,8.50
2018-12-22T13:06:23.631Z,4.50